Time;durP1;ratioP1;P1;durP2;ratioP2;P2;SDS_P1;SDS_P2;PMS_P1;PMS_P2;Temp;Humidity;BMP_temperature;BMP_pressure;BME280_temperature;BME280_humidity;BME280_pressure;Samples;Min_cycle;Max_cycle;Signal;HPM_P1;HPM_P2
2023/08/30 00:09:01;;;;;;;14.52;4.18;;;;;;;27.06;53.02;100892.50;21070856;28;20487;-61
2023/08/30 00:19:03;;;;;;;19.23;5.28;;;;;;;27.28;53.20;100934.59;21077476;28;20102;-59
2023/08/30 00:29:05;;;;;;;13.63;4.85;;;;;;;27.32;53.23;100918.72;21073534;28;20036;-60
2023/08/30 00:39:07;;;;;;;12.90;5.47;;;;;;;27.41;53.38;100917.94;21024799;28;20112;-59
2023/08/30 00:49:10;;;;;;;19.58;5.93;;;;;;;27.45;53.16;100921.75;21088112;28;20040;-60
2023/08/30 00:59:11;;;;;;;13.77;5.97;;;;;;;27.49;53.26;100905.88;21076520;28;20486;-60
2023/08/30 01:09:13;;;;;;;15.73;6.15;;;;;;;27.54;53.42;100931.03;21082910;28;20410;-59
2023/08/30 01:19:26;;;;;;;15.75;5.80;;;;;;;27.55;53.17;100921.44;21071827;28;20040;-59
2023/08/30 01:29:30;;;;;;;15.80;5.57;;;;;;;27.57;53.27;100927.56;21076848;28;20039;-59
2023/08/30 01:39:32;;;;;;;17.80;6.25;;;;;;;27.53;53.07;100918.94;21059635;28;20028;-59
2023/08/30 01:49:35;;;;;;;12.63;5.38;;;;;;;27.63;53.43;100931.91;21076410;28;20040;-60
2023/08/30 01:59:37;;;;;;;14.52;6.07;;;;;;;27.66;53.40;100936.03;21067070;28;20101;-59
2023/08/30 02:09:58;;;;;;;13.52;5.93;;;;;;;27.62;53.59;100935.84;21072966;28;20383;-61
2023/08/30 02:20:00;;;;;;;18.20;6.50;;;;;;;27.73;53.25;100934.41;21073833;28;20480;-59
2023/08/30 02:30:05;;;;;;;17.77;6.18;;;;;;;27.58;53.53;100915.16;21070376;28;20073;-60
2023/08/30 02:40:06;;;;;;;19.20;6.85;;;;;;;27.66;53.80;100925.59;21079301;28;20089;-59
2023/08/30 02:50:08;;;;;;;18.98;8.05;;;;;;;27.64;53.67;100919.50;21069688;28;20540;-61
2023/08/30 03:00:10;;;;;;;12.70;6.90;;;;;;;27.66;53.82;100900.28;21080371;28;20547;-60
2023/08/30 03:10:12;;;;;;;16.58;7.88;;;;;;;27.65;53.68;100890.22;21066326;28;20066;-59
2023/08/30 03:20:14;;;;;;;13.95;7.47;;;;;;;27.69;53.85;100894.03;21035831;28;20194;-59
2023/08/30 03:30:15;;;;;;;15.20;6.50;;;;;;;27.63;54.00;100895.34;21076445;28;20040;-60
2023/08/30 03:40:17;;;;;;;14.45;6.78;;;;;;;27.71;53.70;100891.69;21076601;28;20048;-60
2023/08/30 03:50:18;;;;;;;11.65;6.28;;;;;;;27.71;54.01;100885.25;21082328;28;20036;-60
2023/08/30 04:00:20;;;;;;;11.88;6.40;;;;;;;27.72;54.27;100867.25;21069521;28;20043;-60
2023/08/30 04:10:21;;;;;;;10.85;5.85;;;;;;;27.73;54.43;100855.69;21084381;28;20093;-59
2023/08/30 04:20:23;;;;;;;12.30;5.95;;;;;;;27.73;54.58;100843.63;21087748;28;20044;-62
2023/08/30 04:30:24;;;;;;;12.38;5.65;;;;;;;27.75;54.56;100839.31;21089236;28;20036;-59
2023/08/30 04:40:25;;;;;;;8.93;5.55;;;;;;;27.76;54.61;100810.03;21088795;28;20082;-59
2023/08/30 04:50:27;;;;;;;9.40;5.72;;;;;;;27.71;54.57;100801.72;21087311;28;20028;-60
2023/08/30 05:00:28;;;;;;;10.35;5.20;;;;;;;27.77;54.52;100794.84;21087482;28;20036;-59
2023/08/30 05:10:30;;;;;;;7.63;4.30;;;;;;;27.80;54.42;100782.91;21083585;28;20047;-60
2023/08/30 05:20:31;;;;;;;11.73;5.30;;;;;;;27.80;54.44;100751.16;21084042;28;20052;-59
2023/08/30 05:30:32;;;;;;;9.05;5.30;;;;;;;27.82;54.26;100774.16;21082962;28;20042;-60
2023/08/30 05:40:34;;;;;;;7.30;4.57;;;;;;;27.81;54.28;100767.72;21083920;28;20035;-60
2023/08/30 05:50:35;;;;;;;9.05;4.95;;;;;;;27.81;54.47;100764.91;21048334;28;20048;-60
2023/08/30 06:00:37;;;;;;;7.53;4.88;;;;;;;27.84;54.40;100740.91;20999887;28;20564;-59
2023/08/30 06:10:39;;;;;;;8.23;4.20;;;;;;;27.77;54.52;100721.75;21080563;28;20028;-58
2023/08/30 06:20:41;;;;;;;6.45;4.05;;;;;;;27.79;54.45;100710.16;21080567;28;20040;-60
2023/08/30 06:30:42;;;;;;;7.45;4.18;;;;;;;27.81;54.67;100693.75;21080145;28;20052;-61
2023/08/30 06:40:49;;;;;;;6.10;3.60;;;;;;;27.89;54.52;100700.53;21079141;28;20113;-60
2023/08/30 06:50:50;;;;;;;6.57;4.17;;;;;;;27.89;54.71;100672.41;21040021;28;20082;-59
2023/08/30 07:00:52;;;;;;;6.35;3.60;;;;;;;27.78;54.66;100633.41;21073409;28;20044;-61
2023/08/30 07:10:56;;;;;;;6.82;3.97;;;;;;;27.88;54.59;100628.59;21077315;28;20040;-61
2023/08/30 07:20:58;;;;;;;4.97;3.45;;;;;;;27.91;54.52;100619.50;21076031;28;20089;-58
2023/08/30 07:31:03;;;;;;;6.03;4.15;;;;;;;27.91;54.35;100630.75;21062078;28;20479;-59
2023/08/30 07:41:05;;;;;;;6.20;3.92;;;;;;;27.91;54.51;100619.50;21071953;28;20047;-58
2023/08/30 07:51:06;;;;;;;4.50;3.65;;;;;;;27.88;54.55;100592.03;21057675;28;20040;-60
2023/08/30 08:01:08;;;;;;;5.70;3.55;;;;;;;27.81;54.52;100587.75;21072287;28;20479;-60
2023/08/30 08:11:09;;;;;;;5.32;3.38;;;;;;;27.92;54.58;100598.63;21027510;28;20040;-59
2023/08/30 08:21:10;;;;;;;4.88;3.55;;;;;;;27.89;54.31;100594.50;20997564;28;20093;-59
2023/08/30 08:31:12;;;;;;;4.18;3.53;;;;;;;27.91;54.49;100594.19;21072023;28;20483;-59
2023/08/30 08:41:15;;;;;;;4.05;3.00;;;;;;;27.94;54.48;100576.59;21089232;28;20036;-59
2023/08/30 08:51:17;;;;;;;5.25;3.72;;;;;;;27.94;54.45;100590.66;21087740;28;20051;-60
2023/08/30 09:01:19;;;;;;;4.22;3.40;;;;;;;27.95;54.85;100570.66;21086936;28;20477;-60
2023/08/30 09:11:20;;;;;;;4.45;3.40;;;;;;;27.95;54.61;100558.56;21086846;28;20036;-60
2023/08/30 09:21:22;;;;;;;3.42;3.03;;;;;;;27.94;54.48;100563.38;21085898;28;20028;-59
2023/08/30 09:31:26;;;;;;;3.95;3.15;;;;;;;27.92;54.65;100551.66;21047925;28;20036;-59
2023/08/30 09:41:28;;;;;;;3.28;2.85;;;;;;;27.94;54.61;100548.50;21056165;28;20040;-60
2023/08/30 09:51:30;;;;;;;4.57;3.20;;;;;;;27.79;54.45;100522.59;21079674;28;20032;-60
2023/08/30 10:01:34;;;;;;;4.55;3.00;;;;;;;27.85;54.39;100531.66;21082603;28;20048;-60
2023/08/30 10:11:37;;;;;;;3.65;2.88;;;;;;;27.95;54.34;100544.50;21082045;28;20036;-60
2023/08/30 10:21:47;;;;;;;4.35;2.90;;;;;;;27.95;54.40;100547.31;21081681;28;20398;-59
2023/08/30 10:31:49;;;;;;;3.60;2.90;;;;;;;27.90;54.45;100539.91;21015800;28;20173;-60
2023/08/30 10:41:57;;;;;;;3.50;2.75;;;;;;;27.94;54.46;100540.88;21075181;28;20056;-60
2023/08/30 10:52:01;;;;;;;3.90;3.30;;;;;;;27.95;54.40;100550.97;21076480;28;20028;-58
2023/08/30 11:02:05;;;;;;;3.10;2.70;;;;;;;27.96;54.45;100549.00;21077522;28;20097;-59
2023/08/30 11:12:06;;;;;;;3.38;2.92;;;;;;;27.85;54.45;100521.22;21077535;28;20040;-60
2023/08/30 11:22:08;;;;;;;2.88;2.47;;;;;;;27.87;54.44;100534.97;21076427;28;20555;-59
2023/08/30 11:32:10;;;;;;;5.45;3.83;;;;;;;27.96;54.48;100541.38;21011790;28;20044;-59
2023/08/30 11:42:12;;;;;;;4.43;3.13;;;;;;;27.98;54.67;100541.03;21073106;28;20052;-59
2023/08/30 11:52:14;;;;;;;2.83;2.50;;;;;;;27.88;54.44;100530.16;21075161;28;20051;-59
2023/08/30 12:02:17;;;;;;;3.65;3.33;;;;;;;27.97;54.57;100545.00;21077545;28;20044;-60
2023/08/30 12:12:18;;;;;;;3.60;3.22;;;;;;;27.98;54.58;100538.22;21085599;28;20088;-61
2023/08/30 12:22:20;;;;;;;3.35;2.75;;;;;;;27.97;54.62;100548.66;21094877;28;20044;-59
2023/08/30 12:32:24;;;;;;;3.50;3.15;;;;;;;27.97;54.43;100581.56;21081617;28;20028;-60
2023/08/30 12:42:26;;;;;;;6.00;3.03;;;;;;;27.86;54.44;100573.50;21087495;28;20142;-60
2023/08/30 12:52:27;;;;;;;3.63;2.80;;;;;;;27.97;54.46;100573.13;21086984;28;20117;-59
2023/08/30 13:02:29;;;;;;;5.88;3.35;;;;;;;27.97;54.75;100584.38;21075821;28;20036;-59
2023/08/30 13:12:30;;;;;;;4.18;3.22;;;;;;;27.99;54.81;100604.53;21001149;28;20450;-60
2023/08/30 13:22:32;;;;;;;6.25;3.70;;;;;;;27.98;54.79;100605.72;21002466;28;20036;-60
2023/08/30 13:32:36;;;;;;;6.05;3.70;;;;;;;27.98;54.84;100606.53;21001635;28;20042;-59
2023/08/30 13:42:39;;;;;;;5.40;3.47;;;;;;;27.99;54.69;100604.53;21000929;28;20029;-60
2023/08/30 13:52:41;;;;;;;6.78;3.75;;;;;;;27.98;54.58;100608.53;21000205;28;21124;-60
2023/08/30 14:02:42;;;;;;;5.53;3.88;;;;;;;28.00;54.62;100612.66;20999568;28;20044;-60
2023/08/30 14:12:44;;;;;;;6.28;3.65;;;;;;;28.00;54.61;100621.09;20998661;28;20503;-59
2023/08/30 14:22:45;;;;;;;6.35;3.72;;;;;;;28.00;54.51;100611.84;20996881;28;20395;-59
2023/08/30 14:32:47;;;;;;;4.60;3.78;;;;;;;28.02;54.39;100624.38;20996789;28;20074;-59
2023/08/30 14:42:51;;;;;;;5.82;4.05;;;;;;;28.01;54.37;100617.13;20996198;28;20056;-60
2023/08/30 14:52:54;;;;;;;5.18;4.03;;;;;;;28.03;54.26;100602.72;20995211;28;20032;-60
2023/08/30 15:02:56;;;;;;;6.30;4.25;;;;;;;28.01;54.28;100607.84;20994812;28;20048;-61
2023/08/30 15:12:57;;;;;;;4.53;4.13;;;;;;;28.05;54.46;100609.66;20993842;28;20089;-60
2023/08/30 15:23:00;;;;;;;4.90;4.40;;;;;;;28.07;54.28;100600.88;20993709;28;20044;-60
2023/08/30 15:33:02;;;;;;;5.00;4.07;;;;;;;28.10;54.20;100608.66;20992504;28;20044;-60
2023/08/30 15:43:06;;;;;;;5.18;4.68;;;;;;;28.12;54.06;100597.88;20992553;28;20048;-59
2023/08/30 15:53:07;;;;;;;4.95;4.45;;;;;;;28.08;53.99;100589.28;20992692;28;20438;-60
2023/08/30 16:03:10;;;;;;;5.15;4.38;;;;;;;28.15;53.55;100597.19;20992188;28;20161;-59
2023/08/30 16:13:15;;;;;;;6.15;5.55;;;;;;;28.18;53.51;100582.47;20991961;28;20109;-60
2023/08/30 16:23:16;;;;;;;5.60;5.00;;;;;;;28.21;53.62;100583.75;20991774;28;20484;-60
2023/08/30 16:33:19;;;;;;;5.88;5.28;;;;;;;28.22;53.67;100577.78;20990781;28;20051;-60
2023/08/30 16:43:20;;;;;;;5.65;5.05;;;;;;;28.24;53.56;100567.03;20990522;28;20080;-60
2023/08/30 16:53:21;;;;;;;5.60;5.10;;;;;;;28.27;53.45;100565.50;21003413;28;20415;-59
2023/08/30 17:03:23;;;;;;;6.00;5.35;;;;;;;28.28;53.13;100562.38;21003054;28;20552;-60
2023/08/30 17:13:25;;;;;;;5.38;4.88;;;;;;;28.30;53.21;100565.66;21004439;28;20037;-60
2023/08/30 17:23:26;;;;;;;5.45;4.95;;;;;;;28.31;53.18;100550.41;21002697;28;20127;-59
2023/08/30 17:33:30;;;;;;;5.70;5.20;;;;;;;28.30;53.01;100531.06;21002039;28;20037;-59
2023/08/30 17:43:32;;;;;;;6.18;5.18;;;;;;;28.33;53.04;100542.47;21001343;28;20479;-60
2023/08/30 17:53:35;;;;;;;5.75;5.20;;;;;;;28.32;53.07;100543.66;21000634;28;20033;-60
2023/08/30 18:03:36;;;;;;;6.13;5.53;;;;;;;28.32;53.29;100518.31;20998297;28;20036;-61
2023/08/30 18:13:40;;;;;;;5.70;5.10;;;;;;;28.33;52.99;100522.78;20998995;28;20044;-59
2023/08/30 18:24:03;;;;;;;6.10;5.50;;;;;;;28.36;52.98;100524.09;20998173;28;20047;-61
2023/08/30 18:34:05;;;;;;;6.05;5.45;;;;;;;28.35;52.73;100502.75;20996824;28;20040;-60
2023/08/30 18:44:07;;;;;;;6.50;5.90;;;;;;;28.42;52.86;100510.69;20995136;28;20117;-59
2023/08/30 18:54:10;;;;;;;6.55;5.93;;;;;;;28.44;52.77;100497.06;20995420;28;20097;-60
2023/08/30 19:04:11;;;;;;;6.53;5.85;;;;;;;28.38;52.52;100481.56;20994668;28;20056;-60
2023/08/30 19:14:12;;;;;;;6.50;5.85;;;;;;;28.46;52.86;100489.13;20992033;28;20020;-60
2023/08/30 19:24:14;;;;;;;6.25;5.65;;;;;;;28.49;52.67;100500.50;20993613;28;20040;-60
2023/08/30 19:34:15;;;;;;;6.95;6.25;;;;;;;28.47;52.48;100485.13;20993084;28;20044;-62
2023/08/30 19:44:17;;;;;;;6.78;6.07;;;;;;;28.47;52.54;100485.13;20992422;28;20041;-60
2023/08/30 19:54:18;;;;;;;7.10;6.40;;;;;;;28.47;52.56;100485.13;20992151;28;20395;-60
2023/08/30 20:04:19;;;;;;;8.30;6.55;;;;;;;28.50;52.49;100484.44;20992782;28;20372;-60
2023/08/30 20:14:21;;;;;;;8.25;7.32;;;;;;;28.49;52.59;100475.16;20991857;28;20079;-60
2023/08/30 20:24:22;;;;;;;6.53;5.93;;;;;;;28.43;52.62;100478.53;20998932;28;20029;-60
2023/08/30 20:34:23;;;;;;;7.35;6.57;;;;;;;28.48;52.49;100493.22;21006361;28;20475;-61
2023/08/30 20:44:25;;;;;;;7.55;6.75;;;;;;;28.49;52.45;100489.25;21006519;28;20045;-60
2023/08/30 20:54:26;;;;;;;7.45;6.70;;;;;;;28.47;52.67;100499.22;21004759;28;20032;-59
2023/08/30 21:04:27;;;;;;;7.60;6.80;;;;;;;28.48;52.60;100492.41;21004233;28;20541;-60
2023/08/30 21:14:29;;;;;;;7.57;6.88;;;;;;;28.48;52.44;100492.41;21003239;28;20037;-60
2023/08/30 21:24:30;;;;;;;7.68;6.93;;;;;;;28.50;52.49;100518.19;21002014;28;20048;-59
2023/08/30 21:34:32;;;;;;;7.35;6.65;;;;;;;28.49;52.41;100510.94;21000856;28;20074;-60
2023/08/30 21:44:33;;;;;;;8.35;7.13;;;;;;;28.52;52.21;100530.78;21001262;28;20028;-61
2023/08/30 21:54:34;;;;;;;7.57;6.88;;;;;;;28.51;52.63;100531.94;21000090;28;20383;-61
2023/08/30 22:04:36;;;;;;;7.25;6.55;;;;;;;28.52;52.52;100535.59;20999930;28;20372;-61
2023/08/30 22:14:45;;;;;;;7.40;6.70;;;;;;;28.44;52.28;100534.47;20998523;28;20437;-60
2023/08/30 22:24:47;;;;;;;6.82;6.22;;;;;;;28.51;52.37;100565.72;20995528;28;20044;-59
2023/08/30 22:34:48;;;;;;;7.40;6.70;;;;;;;28.53;52.26;100566.19;20996761;28;20110;-59
2023/08/30 22:44:49;;;;;;;7.57;6.88;;;;;;;28.53;52.32;100562.56;21026468;28;20101;-59
2023/08/30 22:54:51;;;;;;;7.32;6.63;;;;;;;28.53;52.43;100579.44;21076033;28;20039;-59
2023/08/30 23:04:53;;;;;;;7.32;6.63;;;;;;;28.53;52.54;100583.09;21077804;28;20043;-59
2023/08/30 23:14:56;;;;;;;6.50;5.90;;;;;;;28.46;52.40;100567.94;21078179;28;20035;-59
2023/08/30 23:25:00;;;;;;;8.23;6.60;;;;;;;28.55;52.47;100602.47;21076846;28;20048;-59
2023/08/30 23:35:03;;;;;;;7.82;7.03;;;;;;;28.54;52.31;100600.81;21073516;28;20514;-60
2023/08/30 23:45:05;;;;;;;18.75;7.05;;;;;;;28.53;52.95;100616.03;21075055;28;20044;-60
2023/08/30 23:55:08;;;;;;;7.55;6.60;;;;;;;28.54;51.94;100631.75;21070867;28;20044;-59
